Time;durP1;ratioP1;P1;durP2;ratioP2;P2;SDS_P1;SDS_P2;PMS_P1;PMS_P2;Temp;Humidity;BMP_temperature;BMP_pressure;BME280_temperature;BME280_humidity;BME280_pressure;Samples;Min_cycle;Max_cycle;Signal;HPM_P1;HPM_P2
2022/10/15 00:00:25;;;;;;;25.40;14.97;;;;;;;11.88;100.00;100069.19;4923396;29;20295;-78
2022/10/15 00:02:50;;;;;;;24.10;13.97;;;;;;;11.89;100.00;100071.66;4937590;29;20145;-77
2022/10/15 00:05:15;;;;;;;24.07;14.43;;;;;;;11.95;100.00;100067.41;4929093;29;20493;-79
2022/10/15 00:07:41;;;;;;;22.40;14.13;;;;;;;11.98;100.00;100059.00;4929420;29;20267;-78
2022/10/15 00:10:06;;;;;;;22.47;13.33;;;;;;;11.96;100.00;100061.03;4925719;29;20038;-77
2022/10/15 00:12:32;;;;;;;21.73;14.15;;;;;;;11.98;100.00;100064.34;4920263;29;20039;-78
2022/10/15 00:14:57;;;;;;;27.50;14.07;;;;;;;11.93;100.00;100058.75;4924051;29;20040;-78
2022/10/15 00:17:23;;;;;;;21.97;14.37;;;;;;;11.91;100.00;100058.09;4925192;29;20046;-77
2022/10/15 00:19:48;;;;;;;25.90;14.63;;;;;;;11.95;100.00;100054.03;4921848;29;20107;-78
2022/10/15 00:22:13;;;;;;;25.23;14.63;;;;;;;11.93;100.00;100051.53;4918500;29;20031;-78
2022/10/15 00:24:39;;;;;;;25.93;16.60;;;;;;;11.96;100.00;100056.53;4922269;29;20039;-77
2022/10/15 00:27:05;;;;;;;22.40;15.07;;;;;;;11.95;100.00;100059.38;4923390;29;20479;-78
2022/10/15 00:29:30;;;;;;;21.20;14.20;;;;;;;11.93;100.00;100050.72;4920758;29;20032;-77
2022/10/15 00:31:55;;;;;;;27.83;16.23;;;;;;;11.94;100.00;100061.25;4933254;29;20028;-77
2022/10/15 00:34:21;;;;;;;23.87;14.23;;;;;;;11.94;100.00;100047.00;4941460;29;20051;-78
2022/10/15 00:36:49;;;;;;;30.63;16.23;;;;;;;11.98;100.00;100042.94;4914934;29;20036;-78
2022/10/15 00:39:14;;;;;;;27.77;15.02;;;;;;;11.89;100.00;100028.84;4911083;29;20031;-78
2022/10/15 00:41:42;;;;;;;25.63;15.43;;;;;;;12.01;100.00;100043.41;4930426;29;20040;-78
2022/10/15 00:44:20;;;;;;;24.70;15.63;;;;;;;12.03;100.00;100054.75;4940075;29;20042;-77
2022/10/15 00:46:49;;;;;;;25.92;16.17;;;;;;;12.04;100.00;100044.88;4923018;29;20051;-78
2022/10/15 00:49:23;;;;;;;26.40;16.17;;;;;;;12.04;100.00;100037.69;4912237;29;20039;-79
2022/10/15 00:52:01;;;;;;;28.88;16.13;;;;;;;12.07;100.00;100035.66;4931461;29;20103;-78
2022/10/15 00:54:31;;;;;;;26.60;16.45;;;;;;;12.10;100.00;100040.59;4929068;29;20513;-78
2022/10/15 00:56:58;;;;;;;29.42;17.08;;;;;;;12.03;100.00;100025.34;4915629;29;20027;-79
2022/10/15 00:59:26;;;;;;;26.73;16.80;;;;;;;12.06;100.00;100029.47;4920450;29;20110;-78
2022/10/15 01:01:52;;;;;;;31.30;17.83;;;;;;;12.09;100.00;100031.75;4932340;29;20055;-78
2022/10/15 01:04:17;;;;;;;30.50;17.50;;;;;;;12.03;100.00;100029.81;4921958;29;20028;-78
2022/10/15 01:06:44;;;;;;;29.77;16.98;;;;;;;11.96;100.00;100012.88;4925193;29;20409;-78
2022/10/15 01:09:11;;;;;;;31.80;18.52;;;;;;;12.06;100.00;100017.91;4918952;29;20028;-79
2022/10/15 01:11:48;;;;;;;33.03;19.20;;;;;;;12.12;100.00;100020.66;4924400;29;20048;-78
2022/10/15 01:14:47;;;;;;;33.75;18.90;;;;;;;12.11;100.00;100015.53;4919792;29;20071;-79
2022/10/15 01:17:16;;;;;;;37.50;18.95;;;;;;;12.13;100.00;100018.84;4915100;29;20047;-79
2022/10/15 01:20:28;;;;;;;35.08;19.83;;;;;;;12.07;100.00;100014.25;4914376;29;20031;-79
2022/10/15 01:23:00;;;;;;;32.75;18.67;;;;;;;12.06;100.00;100018.78;4933409;29;20119;-79
2022/10/15 01:25:36;;;;;;;35.95;19.23;;;;;;;12.06;100.00;100015.25;4934889;28;20515;-78
2022/10/15 01:28:31;;;;;;;42.15;21.38;;;;;;;12.06;100.00;100013.41;4924342;29;20507;-78
2022/10/15 01:31:06;;;;;;;43.85;22.08;;;;;;;12.06;100.00;100002.72;4938961;29;20466;-78
2022/10/15 01:33:44;;;;;;;48.97;22.42;;;;;;;12.06;100.00;100008.06;4919650;29;20082;-78
2022/10/15 01:36:16;;;;;;;40.22;22.42;;;;;;;12.10;100.00;100009.31;4929201;29;20422;-78
2022/10/15 01:38:59;;;;;;;43.80;23.42;;;;;;;12.13;100.00;100008.16;4916090;29;20039;-77
2022/10/15 01:41:31;;;;;;;45.90;23.38;;;;;;;12.11;100.00;100008.31;4922568;29;20039;-78
2022/10/15 01:44:06;;;;;;;58.28;24.27;;;;;;;12.12;100.00;100003.78;4930716;29;20038;-78
2022/10/15 01:47:02;;;;;;;49.92;23.70;;;;;;;12.09;100.00;99998.84;4921196;29;20032;-78
2022/10/15 01:49:31;;;;;;;53.47;25.85;;;;;;;12.14;100.00;100005.25;4928696;29;20055;-78
2022/10/15 01:52:16;;;;;;;49.80;25.15;;;;;;;12.14;100.00;99997.22;4939224;29;20038;-78
2022/10/15 01:54:44;;;;;;;52.58;25.88;;;;;;;12.08;100.00;99989.13;4922700;29;20046;-79
2022/10/15 01:57:11;;;;;;;50.65;23.90;;;;;;;12.20;100.00;99995.66;4912474;29;20038;-78
2022/10/15 01:59:41;;;;;;;46.00;23.25;;;;;;;12.24;100.00;100000.44;4941742;29;20036;-78
2022/10/15 02:02:06;;;;;;;49.28;25.58;;;;;;;12.24;100.00;99994.22;4912850;29;20047;-78
2022/10/15 02:04:32;;;;;;;47.60;24.63;;;;;;;12.24;100.00;99995.09;4924867;29;20039;-78
2022/10/15 02:07:06;;;;;;;52.00;24.17;;;;;;;12.24;100.00;99978.16;4925174;29;20047;-77
2022/10/15 02:09:55;;;;;;;53.67;27.98;;;;;;;12.30;100.00;99992.66;4923621;29;20126;-78
2022/10/15 02:12:50;;;;;;;61.90;28.73;;;;;;;12.32;100.00;99987.94;4932647;29;20078;-78
2022/10/15 02:15:25;;;;;;;54.63;25.70;;;;;;;12.33;100.00;99985.06;4912661;29;20039;-79
2022/10/15 02:18:19;;;;;;;60.28;29.08;;;;;;;12.32;100.00;99975.38;4937635;29;20564;-78
2022/10/15 02:20:54;;;;;;;65.13;29.77;;;;;;;12.34;100.00;99976.00;4934596;29;20131;-78
2022/10/15 02:23:24;;;;;;;67.43;31.02;;;;;;;12.36;100.00;99970.44;4918361;29;20172;-78
2022/10/15 02:25:52;;;;;;;70.50;30.20;;;;;;;12.35;100.00;99974.16;4933752;29;20497;-78
2022/10/15 02:28:18;;;;;;;68.80;30.55;;;;;;;12.41;100.00;99970.72;4939296;29;20024;-79
2022/10/15 02:30:47;;;;;;;74.88;30.58;;;;;;;12.43;100.00;99974.84;4937196;29;20070;-79
2022/10/15 02:33:15;;;;;;;66.78;31.30;;;;;;;12.38;100.00;99973.75;4928381;29;20038;-79
2022/10/15 02:35:42;;;;;;;63.03;30.67;;;;;;;12.40;100.00;99977.91;4927632;29;20063;-78
2022/10/15 02:38:11;;;;;;;71.88;32.05;;;;;;;12.42;100.00;99970.50;4937150;29;20035;-79
2022/10/15 02:40:37;;;;;;;71.40;31.00;;;;;;;12.35;100.00;99971.47;4919966;29;20170;-78
2022/10/15 02:43:05;;;;;;;75.28;32.47;;;;;;;12.33;100.00;99966.31;4923367;29;20452;-78
2022/10/15 02:45:31;;;;;;;79.72;34.63;;;;;;;12.29;100.00;99964.22;4920703;29;20110;-78
2022/10/15 02:47:57;;;;;;;74.20;32.00;;;;;;;12.33;100.00;99968.16;4920283;29;20114;-78
2022/10/15 02:50:23;;;;;;;83.37;37.57;;;;;;;12.33;100.00;99974.34;4916328;29;20152;-79
2022/10/15 02:52:48;;;;;;;73.27;34.10;;;;;;;12.38;100.00;99974.59;4930626;29;20042;-78
2022/10/15 02:55:14;;;;;;;72.80;33.33;;;;;;;12.27;100.00;99974.28;4928589;29;20441;-79
2022/10/15 02:57:39;;;;;;;68.43;31.38;;;;;;;12.31;100.00;99972.88;4929465;29;20441;-79
2022/10/15 03:00:07;;;;;;;79.22;35.97;;;;;;;12.23;100.00;99966.66;4914125;29;20150;-78
2022/10/15 03:02:33;;;;;;;77.18;34.95;;;;;;;12.21;100.00;99963.31;4923304;29;20036;-78
2022/10/15 03:04:58;;;;;;;83.20;36.30;;;;;;;12.16;100.00;99962.25;4957750;23;20051;-74
2022/10/15 03:07:24;;;;;;;76.50;33.63;;;;;;;12.19;100.00;99970.72;4940333;29;20102;-74
2022/10/15 03:09:49;;;;;;;84.17;35.17;;;;;;;12.12;100.00;99969.00;4923742;29;20036;-73
2022/10/15 03:12:14;;;;;;;75.10;34.63;;;;;;;12.07;100.00;99961.56;4918213;29;20093;-73
2022/10/15 03:14:40;;;;;;;98.33;36.90;;;;;;;12.04;100.00;99967.28;4934064;29;20508;-73
2022/10/15 03:17:05;;;;;;;92.77;37.00;;;;;;;11.88;100.00;99955.00;4920755;29;20788;-74
2022/10/15 03:19:31;;;;;;;80.67;33.90;;;;;;;11.80;100.00;99955.09;4937367;29;20536;-74
2022/10/15 03:21:56;;;;;;;88.90;37.70;;;;;;;11.73;100.00;99949.66;4944520;29;20034;-73
2022/10/15 03:24:22;;;;;;;94.97;39.58;;;;;;;11.67;100.00;99945.06;4932681;29;20118;-73
2022/10/15 03:26:48;;;;;;;88.73;34.53;;;;;;;11.68;100.00;99951.25;4920589;29;20118;-73
2022/10/15 03:29:13;;;;;;;92.27;36.40;;;;;;;11.70;100.00;99955.38;4934889;29;20019;-74
2022/10/15 03:31:44;;;;;;;113.80;39.70;;;;;;;11.66;100.00;99959.47;4951310;28;20477;-74
2022/10/15 03:34:10;;;;;;;86.13;33.00;;;;;;;11.59;100.00;99963.91;4934605;29;20035;-74
2022/10/15 03:36:35;;;;;;;82.17;33.93;;;;;;;11.50;100.00;99959.69;4949644;28;20437;-74
2022/10/15 03:39:05;;;;;;;81.30;35.10;;;;;;;11.49;100.00;99966.03;4940517;29;20114;-73
2022/10/15 03:41:30;;;;;;;90.22;36.13;;;;;;;11.47;100.00;99960.91;4949637;28;20491;-73
2022/10/15 03:44:00;;;;;;;89.53;35.33;;;;;;;11.62;100.00;99975.03;4922201;29;20031;-73
2022/10/15 03:46:26;;;;;;;103.05;39.08;;;;;;;11.79;100.00;99980.16;4952889;28;20302;-74
2022/10/15 03:48:51;;;;;;;98.00;39.13;;;;;;;11.78;100.00;99983.88;4936050;29;20019;-74
2022/10/15 03:51:18;;;;;;;93.30;38.90;;;;;;;11.82;100.00;99985.97;4919057;29;20043;-74
2022/10/15 03:53:45;;;;;;;106.70;41.80;;;;;;;11.83;100.00;100000.16;4947953;28;20019;-74
2022/10/15 03:56:10;;;;;;;89.57;37.07;;;;;;;11.80;100.00;99981.84;4920730;29;20035;-74
2022/10/15 03:58:37;;;;;;;100.55;41.53;;;;;;;11.84;100.00;99989.25;4934767;29;20500;-74
2022/10/15 04:01:12;;;;;;;95.90;38.58;;;;;;;11.85;100.00;99992.78;4938600;29;20131;-73
2022/10/15 04:03:37;;;;;;;100.78;39.95;;;;;;;11.94;100.00;100004.22;4952792;28;20404;-74
2022/10/15 04:06:03;;;;;;;108.90;41.40;;;;;;;11.92;100.00;100006.28;4939629;28;20027;-73
2022/10/15 04:08:29;;;;;;;103.60;41.53;;;;;;;11.93;100.00;100013.28;4937021;29;20075;-74
2022/10/15 04:10:55;;;;;;;115.22;40.92;;;;;;;11.90;100.00;100008.31;4940079;29;20110;-74
2022/10/15 04:13:22;;;;;;;110.80;40.38;;;;;;;11.95;100.00;100016.59;4937291;29;20117;-73
2022/10/15 04:15:47;;;;;;;114.90;41.17;;;;;;;11.97;100.00;100015.38;4923963;29;20027;-74
2022/10/15 04:18:13;;;;;;;103.30;40.43;;;;;;;11.94;100.00;100004.22;4938486;29;20051;-73
2022/10/15 04:20:41;;;;;;;112.07;40.95;;;;;;;11.96;100.00;100012.88;4938681;29;20070;-74
2022/10/15 04:23:10;;;;;;;112.13;45.28;;;;;;;11.95;100.00;100013.91;4924162;29;20031;-74
2022/10/15 04:25:38;;;;;;;110.47;40.85;;;;;;;11.95;100.00;100016.59;4952514;28;20031;-73
2022/10/15 04:28:04;;;;;;;106.40;41.78;;;;;;;11.95;100.00;100016.59;4923414;29;20027;-74
2022/10/15 04:30:31;;;;;;;107.28;40.58;;;;;;;11.93;100.00;100018.63;4924928;29;20050;-74
2022/10/15 04:32:59;;;;;;;109.18;41.63;;;;;;;11.97;100.00;100020.72;4947532;29;20027;-74
2022/10/15 04:35:24;;;;;;;114.27;41.57;;;;;;;11.90;100.00;100010.97;4936478;29;20023;-74
2022/10/15 04:38:10;;;;;;;105.65;40.90;;;;;;;11.87;100.00;100013.97;4937215;29;20046;-74
2022/10/15 04:41:07;;;;;;;97.00;40.80;;;;;;;11.86;100.00;100015.84;4952152;28;20035;-74
2022/10/15 04:43:58;;;;;;;100.32;41.90;;;;;;;11.86;100.00;100020.38;4954282;28;20102;-73
2022/10/15 04:46:23;;;;;;;93.30;39.17;;;;;;;11.83;100.00;100013.53;4936016;29;20035;-74
2022/10/15 04:48:49;;;;;;;103.38;39.70;;;;;;;11.78;100.00;100019.47;4938449;29;20059;-73
2022/10/15 04:51:19;;;;;;;104.95;38.30;;;;;;;11.73;100.00;100015.66;4924548;29;20035;-73
2022/10/15 04:54:00;;;;;;;102.57;41.00;;;;;;;11.67;100.00;100013.75;4934996;29;20385;-73
2022/10/15 04:56:27;;;;;;;94.80;38.70;;;;;;;11.67;100.00;100016.44;4924288;29;20050;-74
2022/10/15 04:58:54;;;;;;;97.93;40.03;;;;;;;11.65;100.00;100018.47;4938853;29;20115;-73
2022/10/15 05:01:20;;;;;;;;;;;;;;;11.64;100.00;100024.84;4937414;29;20082;-73
2022/10/15 05:04:04;;;;;;;97.32;39.40;;;;;;;11.63;100.00;100021.31;4923591;29;19918;-73
2022/10/15 05:06:32;;;;;;;92.65;38.35;;;;;;;11.62;100.00;100025.03;4948053;28;20051;-73
2022/10/15 05:09:06;;;;;;;97.45;40.22;;;;;;;11.57;100.00;100024.75;4929739;29;20026;-73
2022/10/15 05:11:35;;;;;;;84.30;38.47;;;;;;;11.64;100.00;100027.53;4938079;29;20036;-73
2022/10/15 05:14:00;;;;;;;87.00;39.55;;;;;;;11.54;100.00;100027.78;4946699;29;20035;-73
2022/10/15 05:16:28;;;;;;;97.07;39.08;;;;;;;11.44;100.00;100022.72;4951402;28;20039;-73
2022/10/15 05:18:57;;;;;;;99.30;40.08;;;;;;;11.39;100.00;100023.28;4953785;28;20075;-73
2022/10/15 05:21:23;;;;;;;93.00;38.72;;;;;;;11.33;100.00;100012.50;4933812;29;20028;-73
2022/10/15 05:23:52;;;;;;;86.97;37.05;;;;;;;11.30;100.00;100021.72;4954468;28;20477;-73
2022/10/15 05:26:33;;;;;;;105.78;39.20;;;;;;;11.23;100.00;100022.66;4922334;29;20564;-73
2022/10/15 05:28:59;;;;;;;104.50;41.00;;;;;;;11.17;100.00;100021.56;4930415;29;20027;-73
2022/10/15 05:31:30;;;;;;;90.13;37.38;;;;;;;11.13;100.00;100028.28;4938334;29;20027;-73
2022/10/15 05:34:07;;;;;;;107.55;39.40;;;;;;;11.02;100.00;100021.53;4950894;28;20082;-72
2022/10/15 05:36:37;;;;;;;94.07;38.22;;;;;;;10.95;100.00;100020.59;4931274;29;20039;-73
2022/10/15 05:39:03;;;;;;;105.35;40.80;;;;;;;10.97;100.00;100030.09;4913339;29;20031;-73
2022/10/15 05:41:34;;;;;;;106.55;39.65;;;;;;;10.92;100.00;100035.16;4928060;29;20091;-73
2022/10/15 05:44:00;;;;;;;97.75;38.38;;;;;;;10.85;100.00;100036.88;4928513;29;20293;-73
2022/10/15 05:46:28;;;;;;;117.13;41.83;;;;;;;10.87;100.00;100050.91;4937858;29;20114;-73
2022/10/15 05:48:55;;;;;;;119.10;42.33;;;;;;;10.84;100.00;100056.59;4947478;29;20035;-73
2022/10/15 05:51:22;;;;;;;104.10;41.05;;;;;;;10.87;100.00;100066.09;4934820;29;20023;-73
2022/10/15 05:53:52;;;;;;;116.97;41.08;;;;;;;10.86;100.00;100072.44;4932825;29;20036;-73
2022/10/15 05:56:18;;;;;;;94.82;38.85;;;;;;;10.91;100.00;100078.06;4934519;29;20065;-73
2022/10/15 05:58:43;;;;;;;91.73;35.93;;;;;;;10.95;100.00;100082.03;4963709;28;20051;-73
2022/10/15 06:01:10;;;;;;;87.90;35.77;;;;;;;10.95;100.00;100080.19;4936069;29;20394;-73
2022/10/15 06:03:38;;;;;;;80.70;34.65;;;;;;;10.99;100.00;100088.69;4937367;29;20396;-73
2022/10/15 06:06:03;;;;;;;90.72;36.47;;;;;;;10.96;100.00;100087.19;4939331;28;20102;-73
2022/10/15 06:08:34;;;;;;;91.03;35.05;;;;;;;10.97;100.00;100085.34;4923243;29;20036;-73
2022/10/15 06:11:03;;;;;;;106.20;37.20;;;;;;;11.03;100.00;100073.97;4939575;29;20064;-73
2022/10/15 06:13:28;;;;;;;88.70;37.72;;;;;;;11.09;100.00;100093.75;4951651;28;20094;-72
2022/10/15 06:15:53;;;;;;;89.80;34.33;;;;;;;11.05;100.00;100089.78;4935710;29;20480;-73
2022/10/15 06:18:19;;;;;;;88.47;35.00;;;;;;;11.14;100.00;100099.38;4935435;28;20123;-73
2022/10/15 06:20:50;;;;;;;79.67;34.50;;;;;;;11.18;100.00;100096.16;4934341;29;20119;-73
2022/10/15 06:23:16;;;;;;;81.55;32.25;;;;;;;11.21;100.00;100102.97;4924770;29;20031;-73
2022/10/15 06:25:41;;;;;;;82.03;33.03;;;;;;;11.19;100.00;100097.84;4935822;29;20099;-74
2022/10/15 06:28:08;;;;;;;74.67;30.17;;;;;;;11.23;100.00;100094.78;4942177;29;20107;-73
2022/10/15 06:30:39;;;;;;;76.38;32.50;;;;;;;11.18;100.00;100092.66;4930070;29;20028;-73
2022/10/15 06:33:05;;;;;;;74.27;31.27;;;;;;;11.15;100.00;100090.38;4919147;29;20028;-73
2022/10/15 06:35:33;;;;;;;70.83;29.73;;;;;;;11.14;100.00;100094.03;4935595;29;20039;-73
2022/10/15 06:38:02;;;;;;;73.43;31.40;;;;;;;11.18;100.00;100090.81;4938071;29;20138;-74
2022/10/15 06:40:28;;;;;;;74.80;31.13;;;;;;;11.19;100.00;100086.31;4931834;29;20135;-74
2022/10/15 06:42:54;;;;;;;79.18;30.83;;;;;;;11.29;100.00;100089.56;4929049;29;20036;-74
2022/10/15 06:45:25;;;;;;;78.10;32.47;;;;;;;11.35;100.00;100093.31;4928920;29;20107;-74
2022/10/15 06:47:50;;;;;;;75.95;32.80;;;;;;;11.44;100.00;100094.91;4936160;29;20790;-74
2022/10/15 06:50:16;;;;;;;80.70;33.07;;;;;;;11.50;100.00;100098.69;4919455;29;20036;-74
2022/10/15 06:52:41;;;;;;;73.83;33.77;;;;;;;11.43;100.00;100084.41;4919896;29;20411;-74
2022/10/15 06:55:07;;;;;;;86.87;36.13;;;;;;;11.48;100.00;100082.00;4927413;29;20057;-74
2022/10/15 06:57:32;;;;;;;80.50;32.80;;;;;;;11.38;100.00;100077.75;4934889;29;20568;-74
2022/10/15 06:59:58;;;;;;;91.67;36.60;;;;;;;11.43;100.00;100074.53;4939035;29;20464;-74
2022/10/15 07:02:23;;;;;;;82.47;33.27;;;;;;;11.48;100.00;100088.19;4934828;29;20039;-74
2022/10/15 07:04:49;;;;;;;78.05;32.22;;;;;;;11.57;100.00;100084.41;4927344;29;20019;-74
2022/10/15 07:07:19;;;;;;;75.50;32.45;;;;;;;11.66;100.00;100085.13;4927720;29;20023;-73
2022/10/15 07:09:46;;;;;;;72.72;29.60;;;;;;;11.87;100.00;100091.53;4926399;29;20130;-74
2022/10/15 07:12:11;;;;;;;76.50;30.55;;;;;;;11.89;100.00;100082.34;4916052;29;20050;-73
2022/10/15 07:14:37;;;;;;;83.27;33.77;;;;;;;11.75;100.00;100067.13;4937956;29;20035;-74
2022/10/15 07:17:02;;;;;;;88.93;34.00;;;;;;;11.52;100.00;100041.34;4916040;29;20047;-74
2022/10/15 07:19:27;;;;;;;97.63;34.70;;;;;;;11.55;100.00;100049.00;4928649;29;20043;-74
2022/10/15 07:21:53;;;;;;;92.87;35.90;;;;;;;11.57;100.00;100056.84;4927137;29;20051;-74
2022/10/15 07:24:18;;;;;;;84.60;33.77;;;;;;;11.56;100.00;100058.66;4928606;29;20028;-74
2022/10/15 07:26:46;;;;;;;98.90;34.43;;;;;;;11.55;100.00;100064.22;4926730;29;20819;-74
2022/10/15 07:29:11;;;;;;;82.38;32.08;;;;;;;11.55;100.00;100062.34;4934434;29;20645;-74
2022/10/15 07:31:37;;;;;;;83.27;31.83;;;;;;;11.52;100.00;100053.88;4937427;28;20036;-74
2022/10/15 07:34:02;;;;;;;83.23;32.83;;;;;;;11.57;100.00;100067.53;4935309;28;20545;-74
2022/10/15 07:36:27;;;;;;;71.13;29.00;;;;;;;11.87;100.00;100078.16;4926857;29;20058;-74
2022/10/15 07:38:53;;;;;;;81.67;31.93;;;;;;;11.80;100.00;100070.91;4911067;29;20015;-74
2022/10/15 07:41:18;;;;;;;96.93;36.20;;;;;;;11.66;100.00;100058.41;4928646;29;20508;-74
2022/10/15 07:43:43;;;;;;;88.97;31.77;;;;;;;11.69;100.00;100051.84;4932698;29;20042;-74
2022/10/15 07:46:09;;;;;;;85.47;34.50;;;;;;;11.64;100.00;100049.72;4928150;29;20047;-74
2022/10/15 07:48:35;;;;;;;91.57;32.42;;;;;;;11.69;100.00;100044.66;4926754;29;20095;-73
2022/10/15 07:51:04;;;;;;;88.10;31.37;;;;;;;11.61;100.00;100036.72;4927061;29;20046;-73
2022/10/15 07:53:30;;;;;;;97.90;34.05;;;;;;;11.74;100.00;100036.88;4946245;29;20024;-74
2022/10/15 07:56:06;;;;;;;89.80;31.02;;;;;;;11.66;100.00;100034.34;4931750;29;20049;-74
2022/10/15 07:58:33;;;;;;;91.55;33.63;;;;;;;11.79;100.00;100052.38;4933839;29;20063;-74
2022/10/15 08:01:03;;;;;;;80.88;30.98;;;;;;;11.83;100.00;100056.34;4925085;29;20036;-74
2022/10/15 08:03:29;;;;;;;91.22;31.48;;;;;;;11.81;100.00;100055.69;4936636;29;20114;-74
2022/10/15 08:05:55;;;;;;;77.88;30.02;;;;;;;11.84;100.00;100053.44;4919038;29;20055;-75
2022/10/15 08:08:22;;;;;;;79.45;29.75;;;;;;;11.77;100.00;100041.84;4932882;29;20038;-74
2022/10/15 08:10:48;;;;;;;80.57;29.30;;;;;;;11.79;100.00;100045.16;4936488;29;20035;-74
2022/10/15 08:13:13;;;;;;;81.77;30.70;;;;;;;11.77;100.00;100041.84;4934957;28;20201;-74
2022/10/15 08:15:40;;;;;;;93.90;33.95;;;;;;;11.78;100.00;100043.53;4920941;29;20095;-74
2022/10/15 08:18:05;;;;;;;;;;;;;;;11.87;100.00;100054.97;4940555;28;20493;-74
2022/10/15 08:20:31;;;;;;;93.03;34.05;;;;;;;11.79;100.00;100053.19;4932058;29;19927;-74
2022/10/15 08:22:56;;;;;;;98.47;34.57;;;;;;;11.78;100.00;100048.88;4935971;29;20071;-74
2022/10/15 08:25:21;;;;;;;98.73;36.13;;;;;;;11.81;100.00;100043.13;4934173;29;20130;-73
2022/10/15 08:27:47;;;;;;;93.47;33.30;;;;;;;11.75;100.00;100046.59;4935066;29;20036;-74
2022/10/15 08:30:12;;;;;;;108.83;36.37;;;;;;;11.74;100.00;100041.41;4918574;29;20023;-74
2022/10/15 08:32:38;;;;;;;101.80;37.63;;;;;;;11.76;100.00;100045.56;4953781;28;20047;-74
2022/10/15 08:35:03;;;;;;;109.83;35.70;;;;;;;11.68;100.00;100042.97;4934585;29;20328;-73
2022/10/15 08:37:31;;;;;;;109.85;37.58;;;;;;;11.76;100.00;100053.56;4949381;28;20035;-74
2022/10/15 08:39:56;;;;;;;99.07;34.47;;;;;;;11.71;100.00;100047.16;4937368;28;20134;-74
2022/10/15 08:42:31;;;;;;;108.10;33.13;;;;;;;11.92;100.00;100068.63;4932456;29;20038;-74
2022/10/15 08:45:00;;;;;;;98.18;32.10;;;;;;;11.80;100.00;100072.78;4948467;28;20036;-74
2022/10/15 08:47:36;;;;;;;78.55;28.13;;;;;;;11.86;100.00;100071.19;4936988;29;20027;-73
2022/10/15 08:50:16;;;;;;;95.13;33.03;;;;;;;11.92;100.00;100078.50;4936822;29;20042;-73
2022/10/15 08:52:45;;;;;;;86.07;33.63;;;;;;;11.94;100.00;100073.75;4952816;28;20071;-75
2022/10/15 08:55:13;;;;;;;94.00;34.28;;;;;;;11.97;100.00;100076.91;4937700;29;20448;-73
2022/10/15 08:57:48;;;;;;;92.50;34.67;;;;;;;12.08;100.00;100077.41;4937372;29;20020;-73
2022/10/15 09:00:16;;;;;;;88.00;31.60;;;;;;;12.01;100.00;100072.00;4952962;28;20046;-73
2022/10/15 09:03:08;;;;;;;96.72;33.25;;;;;;;11.96;100.00;100067.22;4953301;28;20045;-73
2022/10/15 09:06:00;;;;;;;97.70;32.13;;;;;;;11.91;100.00;100058.09;4937981;28;20405;-75
2022/10/15 09:08:44;;;;;;;96.38;32.35;;;;;;;11.89;100.00;100057.44;4951910;28;20031;-74
2022/10/15 09:11:19;;;;;;;103.28;35.30;;;;;;;11.89;100.00;100062.81;4955156;28;20115;-75
2022/10/15 09:13:45;;;;;;;99.72;35.78;;;;;;;12.03;100.00;100078.84;4937863;29;20123;-75
2022/10/15 09:16:26;;;;;;;96.20;35.72;;;;;;;12.12;100.00;100082.22;4939345;29;20118;-73
2022/10/15 09:18:53;;;;;;;90.18;33.05;;;;;;;12.18;100.00;100076.13;4951221;28;20040;-73
2022/10/15 09:21:23;;;;;;;;;;;;;;;12.16;100.00;100075.47;4942398;29;20089;-73
2022/10/15 09:23:49;;;;;;;83.60;31.10;;;;;;;12.28;100.00;100075.81;4938176;29;19919;-73
2022/10/15 09:26:25;;;;;;;91.13;35.20;;;;;;;12.40;100.00;100081.47;4936992;29;20022;-73
2022/10/15 09:29:14;;;;;;;91.32;34.10;;;;;;;12.36;100.00;100073.03;4953997;28;20035;-73
2022/10/15 09:31:53;;;;;;;84.97;31.88;;;;;;;12.49;100.00;100077.66;4945047;29;20035;-75
2022/10/15 09:34:44;;;;;;;91.00;33.28;;;;;;;12.50;100.00;100073.94;4937027;28;20438;-74
2022/10/15 09:37:22;;;;;;;80.93;30.98;;;;;;;12.51;100.00;100062.25;4955031;28;20058;-73
2022/10/15 09:40:21;;;;;;;;;;;;;;;12.50;100.00;100062.41;4955773;28;20085;-73
2022/10/15 09:42:49;;;;;;;86.28;31.25;;;;;;;12.44;100.00;100061.34;4941552;29;20366;-73
2022/10/15 09:45:15;;;;;;;73.13;30.42;;;;;;;12.69;100.00;100067.16;4935099;29;20074;-73
2022/10/15 09:47:43;;;;;;;78.38;31.25;;;;;;;12.54;100.00;100061.03;4934813;29;20146;-73
2022/10/15 09:50:11;;;;;;;80.25;34.00;;;;;;;12.62;100.00;100061.72;4938661;28;20178;-73
2022/10/15 09:53:01;;;;;;;90.95;35.72;;;;;;;12.74;100.00;100072.75;4935857;29;20416;-73
2022/10/15 09:56:04;;;;;;;77.03;31.52;;;;;;;13.21;100.00;100075.78;4940020;29;20062;-75
2022/10/15 09:58:38;;;;;;;76.15;35.35;;;;;;;13.44;100.00;100059.47;4936590;29;20402;-72
2022/10/15 10:01:05;;;;;;;69.65;29.30;;;;;;;13.54;100.00;100064.47;4957034;28;20042;-73
2022/10/15 10:03:37;;;;;;;65.65;30.13;;;;;;;13.59;100.00;100060.16;4938667;28;20031;-72
2022/10/15 10:06:07;;;;;;;59.43;28.97;;;;;;;13.49;100.00;100057.84;4942434;28;20499;-72
2022/10/15 10:08:46;;;;;;;60.08;28.42;;;;;;;13.58;100.00;100050.47;4951527;28;20500;-72
2022/10/15 10:11:12;;;;;;;57.35;28.23;;;;;;;13.82;100.00;100037.56;4929055;29;20043;-72
2022/10/15 10:13:50;;;;;;;57.03;27.60;;;;;;;14.10;100.00;100042.81;4938357;28;20376;-73
2022/10/15 10:16:18;;;;;;;50.08;24.27;;;;;;;13.80;100.00;100021.66;4942341;29;20815;-72
2022/10/15 10:18:59;;;;;;;50.72;24.52;;;;;;;13.77;100.00;100016.69;4934880;29;20035;-73
2022/10/15 10:21:31;;;;;;;51.40;25.00;;;;;;;13.99;100.00;100020.06;4934729;28;20046;-72
2022/10/15 10:24:18;;;;;;;46.97;24.00;;;;;;;14.02;100.00;100008.91;4935190;29;20042;-72
2022/10/15 10:26:45;;;;;;;50.60;23.63;;;;;;;14.02;100.00;99997.34;4951862;28;20039;-73
2022/10/15 10:29:16;;;;;;;47.17;23.25;;;;;;;15.05;100.00;100030.06;4936084;29;20050;-73
2022/10/15 10:31:43;;;;;;;53.03;26.33;;;;;;;14.65;100.00;99994.34;4954680;28;20043;-72
2022/10/15 10:34:30;;;;;;;53.83;25.52;;;;;;;14.35;100.00;99984.81;4950022;28;20031;-72
2022/10/15 10:37:00;;;;;;;50.92;24.92;;;;;;;14.13;100.00;99980.66;4948133;28;20211;-72
2022/10/15 10:39:29;;;;;;;45.08;20.40;;;;;;;14.30;100.00;100006.06;4933373;29;20050;-73
2022/10/15 10:42:21;;;;;;;45.05;22.92;;;;;;;14.28;100.00;99997.41;4936047;29;20030;-72
2022/10/15 10:44:47;;;;;;;43.22;21.35;;;;;;;14.23;100.00;99994.47;4936307;29;20077;-73
2022/10/15 10:47:19;;;;;;;44.13;23.42;;;;;;;14.68;100.00;99997.44;4934346;28;20055;-72
2022/10/15 10:49:52;;;;;;;44.10;22.42;;;;;;;14.47;100.00;99989.53;4937356;29;20457;-72
2022/10/15 10:52:30;;;;;;;42.63;20.83;;;;;;;14.81;100.00;99948.22;4929340;29;20066;-73
2022/10/15 10:55:06;;;;;;;40.47;21.20;;;;;;;14.75;100.00;99941.84;4937374;29;20981;-72
2022/10/15 10:57:43;;;;;;;40.63;21.63;;;;;;;14.52;100.00;99941.44;4951135;28;20063;-72
2022/10/15 11:00:37;;;;;;;38.25;20.05;;;;;;;14.54;100.00;99969.75;4921307;29;20071;-72
2022/10/15 11:03:03;;;;;;;38.83;20.15;;;;;;;14.80;100.00;99969.94;4936094;29;20417;-73
2022/10/15 11:05:32;;;;;;;44.30;22.48;;;;;;;14.21;100.00;99942.88;4926005;29;20033;-72
2022/10/15 11:08:34;;;;;;;39.80;19.88;;;;;;;14.13;100.00;99980.66;4935085;29;20397;-73
2022/10/15 11:11:03;;;;;;;41.08;20.23;;;;;;;14.17;100.00;100013.28;4926410;29;20031;-73
2022/10/15 11:13:38;;;;;;;40.22;21.73;;;;;;;14.40;100.00;100031.69;4950237;28;20095;-72
2022/10/15 11:16:33;;;;;;;30.20;17.58;;;;;;;15.33;100.00;100035.16;4937928;28;20073;-72
2022/10/15 11:19:22;;;;;;;35.58;18.08;;;;;;;15.13;100.00;99968.00;4937692;28;20019;-72